Time;durP1;ratioP1;P1;durP2;ratioP2;P2;SDS_P1;SDS_P2;PMS_P1;PMS_P2;Temp;Humidity;BMP_temperature;BMP_pressure;BME280_temperature;BME280_humidity;BME280_pressure;Samples;Min_cycle;Max_cycle;Signal;HPM_P1;HPM_P2
2023/08/29 00:00:51;;;;;;;4.88;3.40;;;;;;;17.99;42.70;100759.22;5025893;28;20080;-80
2023/08/29 00:03:19;;;;;;;4.90;3.40;;;;;;;17.97;42.71;100755.78;5015123;28;20518;-80
2023/08/29 00:05:47;;;;;;;4.80;3.08;;;;;;;17.97;42.58;100754.94;5021349;28;20504;-80
2023/08/29 00:08:15;;;;;;;4.95;3.00;;;;;;;17.95;43.05;100745.94;5024316;28;20056;-80
2023/08/29 00:10:43;;;;;;;4.93;3.00;;;;;;;17.94;42.74;100731.22;5049339;28;20539;-80
2023/08/29 00:13:11;;;;;;;4.90;2.97;;;;;;;17.93;42.68;100734.19;5023826;28;20128;-80
2023/08/29 00:15:39;;;;;;;3.97;2.75;;;;;;;17.92;43.03;100727.78;5029039;28;20072;-80
2023/08/29 00:18:08;;;;;;;4.68;2.65;;;;;;;17.93;42.67;100729.50;5027090;28;20057;-81
2023/08/29 00:20:36;;;;;;;5.10;3.15;;;;;;;17.91;43.32;100727.97;5027793;28;20076;-80
2023/08/29 00:23:04;;;;;;;5.03;3.47;;;;;;;17.91;43.26;100723.28;5035553;28;20073;-80
2023/08/29 00:25:32;;;;;;;4.85;3.28;;;;;;;17.89;43.11;100730.94;5026413;28;20068;-81
2023/08/29 00:28:00;;;;;;;4.50;2.88;;;;;;;17.89;42.91;100738.38;5024796;28;20161;-81
2023/08/29 00:30:28;;;;;;;5.18;3.15;;;;;;;17.87;43.49;100729.41;5026167;28;20103;-80
2023/08/29 00:32:56;;;;;;;5.30;2.83;;;;;;;17.86;43.32;100723.00;5027544;28;20501;-79
2023/08/29 00:35:25;;;;;;;4.07;2.83;;;;;;;17.88;42.95;100728.34;5027687;28;20055;-80
2023/08/29 00:37:53;;;;;;;5.93;3.10;;;;;;;17.85;43.20;100725.94;5023378;28;20046;-81
2023/08/29 00:40:30;;;;;;;5.65;3.10;;;;;;;17.87;43.26;100733.03;5027569;28;20056;-81
2023/08/29 00:42:58;;;;;;;4.47;2.78;;;;;;;17.83;43.52;100747.41;5033005;28;20033;-81
2023/08/29 00:45:27;;;;;;;4.72;2.88;;;;;;;17.84;43.60;100746.38;5038487;28;20042;-80
2023/08/29 00:47:56;;;;;;;4.85;3.20;;;;;;;17.83;43.34;100752.94;5045124;28;20049;-80
2023/08/29 00:50:27;;;;;;;4.15;3.00;;;;;;;17.83;43.66;100745.50;5035213;28;20045;-81
2023/08/29 00:52:59;;;;;;;5.35;3.50;;;;;;;17.82;43.58;100752.06;5030140;28;20115;-81
2023/08/29 00:55:28;;;;;;;4.55;2.95;;;;;;;17.80;43.29;100740.34;5028548;28;20095;-82
2023/08/29 00:57:59;;;;;;;5.25;3.25;;;;;;;17.79;43.60;100746.06;5025430;28;20052;-80
2023/08/29 01:00:29;;;;;;;4.95;3.00;;;;;;;17.78;43.26;100747.97;5036389;28;20037;-82
2023/08/29 01:02:57;;;;;;;4.22;2.80;;;;;;;17.78;43.51;100745.22;5027169;28;20462;-80
2023/08/29 01:05:28;;;;;;;3.95;2.83;;;;;;;17.78;43.73;100734.13;5034452;28;20053;-81
2023/08/29 01:07:58;;;;;;;4.20;2.83;;;;;;;17.77;43.61;100737.94;5034842;28;20140;-81
2023/08/29 01:10:37;;;;;;;6.13;3.60;;;;;;;17.77;43.85;100744.34;5013639;28;20046;-80
2023/08/29 01:13:11;;;;;;;5.85;3.30;;;;;;;17.75;43.83;100737.25;5009317;28;20116;-80
2023/08/29 01:15:43;;;;;;;5.35;3.33;;;;;;;17.73;43.34;100737.41;5013904;28;20045;-80
2023/08/29 01:18:13;;;;;;;5.13;3.28;;;;;;;17.72;43.47;100737.63;5015775;28;20050;-81
2023/08/29 01:20:43;;;;;;;4.35;3.03;;;;;;;17.69;43.59;100729.66;5000972;28;20161;-81
2023/08/29 01:23:20;;;;;;;5.40;3.10;;;;;;;17.70;43.66;100745.22;5024844;28;20099;-80
2023/08/29 01:25:53;;;;;;;4.60;2.90;;;;;;;17.69;43.78;100746.28;5037368;28;20047;-81
2023/08/29 01:28:22;;;;;;;;;;;;;;;17.39;44.60;100750.78;5034389;28;20060;-81
2023/08/29 01:30:51;;;;;;;4.82;2.95;;;;;;;17.61;43.39;100751.88;5026832;28;19999;-82
2023/08/29 01:33:20;;;;;;;4.13;2.90;;;;;;;17.64;43.74;100751.50;5033856;28;20458;-82
2023/08/29 01:35:48;;;;;;;3.97;2.92;;;;;;;17.62;43.82;100751.69;5034288;28;20042;-80
2023/08/29 01:38:17;;;;;;;4.57;2.88;;;;;;;17.61;43.41;100772.09;5033032;28;20103;-80
2023/08/29 01:40:45;;;;;;;4.03;2.65;;;;;;;17.60;43.51;100777.81;5032873;28;20046;-81
2023/08/29 01:43:13;;;;;;;5.43;3.20;;;;;;;17.59;43.52;100779.72;5031411;28;20076;-81
2023/08/29 01:45:42;;;;;;;4.43;3.10;;;;;;;17.60;44.04;100775.03;5034270;28;20041;-81
2023/08/29 01:48:11;;;;;;;3.50;2.70;;;;;;;17.59;44.15;100776.09;5033673;28;20072;-81
2023/08/29 01:50:41;;;;;;;3.72;2.85;;;;;;;17.57;44.14;100783.69;5034751;28;20116;-80
2023/08/29 01:53:10;;;;;;;4.55;2.85;;;;;;;17.56;43.75;100782.88;5034957;28;20260;-81
2023/08/29 01:55:39;;;;;;;6.50;3.20;;;;;;;17.54;43.83;100798.78;5030137;28;20125;-82
2023/08/29 01:58:09;;;;;;;6.10;3.60;;;;;;;17.53;44.23;100791.50;5029996;28;20077;-80
2023/08/29 02:00:37;;;;;;;4.93;3.10;;;;;;;17.53;44.19;100790.66;5031329;28;20470;-81
2023/08/29 02:03:06;;;;;;;4.07;3.05;;;;;;;17.51;44.34;100785.28;5029257;28;20159;-81
2023/08/29 02:05:34;;;;;;;4.05;2.90;;;;;;;17.51;43.83;100795.50;5033459;28;20795;-80
2023/08/29 02:08:03;;;;;;;5.25;3.22;;;;;;;17.49;44.43;100805.88;5032751;28;20042;-82
2023/08/29 02:10:32;;;;;;;4.15;3.20;;;;;;;17.48;44.26;100812.47;5030085;28;20060;-81
2023/08/29 02:13:00;;;;;;;3.90;2.70;;;;;;;17.46;44.16;100812.66;5033329;28;20045;-81
2023/08/29 02:15:28;;;;;;;4.60;3.03;;;;;;;17.46;44.43;100809.03;5030860;28;20045;-82
2023/08/29 02:17:55;;;;;;;3.78;2.67;;;;;;;17.45;44.41;100807.31;5034653;28;20429;-81
2023/08/29 02:20:25;;;;;;;4.28;2.95;;;;;;;17.44;44.23;100805.56;5034479;28;20069;-80
2023/08/29 02:22:52;;;;;;;4.30;2.80;;;;;;;17.43;44.61;100807.47;5038287;28;20108;-82
2023/08/29 02:25:20;;;;;;;4.72;2.92;;;;;;;17.44;44.46;100811.09;5045254;28;20068;-81
2023/08/29 02:27:48;;;;;;;5.60;3.53;;;;;;;17.42;44.57;100807.66;5049520;28;20052;-80
2023/08/29 02:30:16;;;;;;;4.82;3.15;;;;;;;17.42;44.68;100814.03;5046828;28;20042;-80
2023/08/29 02:32:45;;;;;;;5.10;2.92;;;;;;;17.40;44.60;100813.38;5050909;28;20060;-80
2023/08/29 02:35:13;;;;;;;4.32;3.20;;;;;;;17.39;44.79;100809.75;5037872;28;20679;-80
2023/08/29 02:37:43;;;;;;;4.20;2.97;;;;;;;17.40;44.57;100813.38;5031491;28;20145;-80
2023/08/29 02:40:11;;;;;;;4.00;2.50;;;;;;;17.37;44.57;100805.44;5032646;28;20127;-81
2023/08/29 02:42:39;;;;;;;4.82;3.08;;;;;;;17.36;44.31;100810.09;5028140;28;20049;-80
2023/08/29 02:45:07;;;;;;;4.15;2.72;;;;;;;17.36;44.87;100803.72;5032330;28;20042;-79
2023/08/29 02:47:35;;;;;;;4.30;2.90;;;;;;;17.35;44.48;100801.97;5030097;28;20168;-80
2023/08/29 02:50:04;;;;;;;4.05;2.67;;;;;;;17.34;44.64;100800.25;5045736;28;20041;-81
2023/08/29 02:52:32;;;;;;;4.38;2.67;;;;;;;17.34;44.47;100797.47;5030413;28;20049;-80
2023/08/29 02:55:01;;;;;;;4.88;2.72;;;;;;;17.35;44.76;100790.91;5030211;28;20069;-79
2023/08/29 02:57:29;;;;;;;4.00;2.63;;;;;;;17.33;44.45;100784.69;5029271;28;20045;-79
2023/08/29 02:59:58;;;;;;;4.00;2.83;;;;;;;17.33;44.32;100784.69;5030236;28;20091;-81
2023/08/29 03:02:25;;;;;;;3.83;2.70;;;;;;;17.32;44.31;100780.19;5029602;28;20054;-81
2023/08/29 03:04:53;;;;;;;5.15;3.00;;;;;;;17.31;44.43;100771.06;5030479;28;20498;-81
2023/08/29 03:07:21;;;;;;;3.55;2.58;;;;;;;17.31;44.80;100773.84;5028768;28;20045;-81
2023/08/29 03:09:49;;;;;;;4.30;3.17;;;;;;;17.30;44.34;100765.72;5027842;28;20048;-82
2023/08/29 03:12:18;;;;;;;4.32;2.92;;;;;;;17.32;45.03;100763.59;5032665;28;20137;-81
2023/08/29 03:14:46;;;;;;;4.28;2.97;;;;;;;17.29;44.86;100761.22;5033173;28;20038;-81
2023/08/29 03:17:14;;;;;;;4.32;3.10;;;;;;;17.27;44.45;100744.78;5034373;28;20126;-81
2023/08/29 03:19:43;;;;;;;4.28;3.30;;;;;;;17.26;44.62;100743.06;5031319;28;20054;-82
2023/08/29 03:22:11;;;;;;;3.78;2.83;;;;;;;17.26;44.75;100736.66;5029142;28;20459;-81
2023/08/29 03:24:39;;;;;;;5.15;3.90;;;;;;;17.25;44.84;100732.19;5029384;28;20089;-81
2023/08/29 03:27:06;;;;;;;5.30;3.78;;;;;;;17.24;45.04;100728.56;5030690;28;20462;-81
2023/08/29 03:29:36;;;;;;;4.82;4.05;;;;;;;17.25;44.46;100730.28;5031748;28;20053;-81
2023/08/29 03:32:04;;;;;;;5.30;3.80;;;;;;;17.21;45.05;100726.16;5033300;28;20049;-81
2023/08/29 03:34:33;;;;;;;4.35;3.72;;;;;;;17.21;44.65;100717.88;5032386;28;20513;-80
2023/08/29 03:37:01;;;;;;;5.38;3.97;;;;;;;17.19;45.08;100713.56;5029420;28;20124;-80
2023/08/29 03:39:29;;;;;;;4.93;3.85;;;;;;;17.20;44.60;100716.13;5028561;28;20046;-81
2023/08/29 03:41:57;;;;;;;5.85;4.38;;;;;;;17.18;44.85;100709.91;5033222;28;20072;-81
2023/08/29 03:44:25;;;;;;;4.28;3.25;;;;;;;17.19;45.08;100710.78;5032938;28;20088;-81
2023/08/29 03:46:54;;;;;;;6.40;3.88;;;;;;;17.18;45.17;100711.81;5030878;28;20096;-80
2023/08/29 03:49:22;;;;;;;6.03;4.50;;;;;;;17.15;44.64;100715.84;5032074;28;20069;-81
2023/08/29 03:51:50;;;;;;;5.28;4.18;;;;;;;17.15;45.02;100706.69;5030238;28;20460;-82
2023/08/29 03:54:18;;;;;;;6.28;4.25;;;;;;;17.14;45.08;100711.34;5029246;28;20034;-81
2023/08/29 03:56:47;;;;;;;5.30;4.10;;;;;;;17.13;44.95;100708.75;5043620;28;20509;-82
2023/08/29 03:59:16;;;;;;;5.03;3.92;;;;;;;17.11;44.94;100706.16;5034717;28;20072;-81
2023/08/29 04:01:45;;;;;;;6.45;4.25;;;;;;;17.11;44.77;100711.69;5035344;28;20045;-81
2023/08/29 04:04:14;;;;;;;5.82;4.75;;;;;;;17.12;44.81;100713.41;5051704;28;20045;-82
2023/08/29 04:06:42;;;;;;;5.63;4.50;;;;;;;17.09;44.96;100713.78;5036395;28;20469;-81
2023/08/29 04:09:10;;;;;;;7.40;4.65;;;;;;;17.07;45.21;100707.59;5036214;28;20389;-82
2023/08/29 04:11:39;;;;;;;5.93;4.38;;;;;;;17.07;44.93;100707.59;5035709;28;20037;-82
2023/08/29 04:14:07;;;;;;;6.40;4.65;;;;;;;17.06;44.84;100711.38;5025540;28;20061;-81
2023/08/29 04:16:35;;;;;;;5.80;4.93;;;;;;;17.05;45.45;100706.91;5029848;28;20501;-80
2023/08/29 04:19:03;;;;;;;5.65;4.68;;;;;;;17.05;45.33;100717.09;5031137;28;20041;-80
2023/08/29 04:21:38;;;;;;;5.78;4.35;;;;;;;17.07;45.66;100728.84;5030468;28;20128;-80
2023/08/29 04:24:06;;;;;;;6.03;4.30;;;;;;;17.00;45.58;100724.00;5028877;28;20045;-80
2023/08/29 04:26:34;;;;;;;7.57;5.32;;;;;;;16.98;45.17;100728.88;5031389;28;20099;-81
2023/08/29 04:29:03;;;;;;;5.90;4.57;;;;;;;16.98;45.34;100728.00;5027949;28;20077;-80
2023/08/29 04:31:30;;;;;;;7.43;5.22;;;;;;;16.97;45.28;100732.69;5031172;28;20042;-80
2023/08/29 04:33:59;;;;;;;6.68;4.93;;;;;;;16.97;45.25;100729.91;5020634;28;20114;-81
2023/08/29 04:36:27;;;;;;;7.03;5.45;;;;;;;16.95;45.83;100728.31;5025608;28;20049;-82
2023/08/29 04:38:56;;;;;;;6.38;4.93;;;;;;;16.96;45.49;100725.38;5027637;28;20052;-81
2023/08/29 04:41:24;;;;;;;6.82;4.70;;;;;;;16.93;45.37;100725.72;5028624;28;20141;-81
2023/08/29 04:43:52;;;;;;;7.07;5.78;;;;;;;16.91;45.56;100722.28;5026524;28;20138;-81
2023/08/29 04:46:20;;;;;;;5.97;4.93;;;;;;;16.90;45.56;100723.34;5033246;28;20056;-81
2023/08/29 04:48:48;;;;;;;7.13;5.45;;;;;;;16.92;45.96;100725.91;5032174;28;20587;-81
2023/08/29 04:51:16;;;;;;;7.50;4.97;;;;;;;16.91;45.51;100722.28;5027031;28;20114;-80
2023/08/29 04:53:43;;;;;;;6.95;5.15;;;;;;;16.91;45.29;100724.19;5028033;28;20076;-81
2023/08/29 04:56:13;;;;;;;7.43;5.22;;;;;;;16.91;45.75;100719.50;5026663;28;20080;-81
2023/08/29 04:58:41;;;;;;;6.78;5.00;;;;;;;16.88;45.62;100711.59;5031840;28;20042;-81
2023/08/29 05:01:09;;;;;;;6.35;4.97;;;;;;;16.88;46.06;100719.91;5037571;28;20030;-82
2023/08/29 05:03:37;;;;;;;7.78;5.68;;;;;;;16.88;45.63;100717.13;5029403;28;20050;-82
2023/08/29 05:06:05;;;;;;;7.22;5.50;;;;;;;16.88;45.51;100717.13;5036508;28;20056;-81
2023/08/29 05:08:34;;;;;;;6.32;5.10;;;;;;;16.88;45.57;100719.91;5035046;28;20053;-81
2023/08/29 05:11:06;;;;;;;7.00;5.70;;;;;;;16.88;46.19;100714.38;5033505;28;20436;-81
2023/08/29 05:13:35;;;;;;;7.63;5.57;;;;;;;16.89;45.82;100720.75;5032343;28;20053;-81
2023/08/29 05:16:03;;;;;;;7.90;4.97;;;;;;;16.86;46.15;100721.97;5030730;28;20062;-82
2023/08/29 05:18:32;;;;;;;7.25;5.28;;;;;;;16.87;45.65;100723.69;5030338;28;20037;-81
2023/08/29 05:21:00;;;;;;;6.38;4.93;;;;;;;16.87;46.08;100714.53;5030132;28;20049;-81
2023/08/29 05:23:28;;;;;;;7.32;5.28;;;;;;;16.86;46.41;100716.44;5027694;28;20050;-80
2023/08/29 05:25:56;;;;;;;7.15;5.63;;;;;;;16.87;46.14;100709.88;5030254;28;20494;-80
2023/08/29 05:28:24;;;;;;;7.68;5.30;;;;;;;16.86;46.34;100707.28;5028764;28;20065;-80
2023/08/29 05:30:53;;;;;;;7.55;5.72;;;;;;;16.88;46.09;100710.72;5026213;28;20041;-81
2023/08/29 05:33:21;;;;;;;7.60;5.70;;;;;;;16.86;45.92;100716.44;5023453;28;20048;-81
2023/08/29 05:35:49;;;;;;;6.57;4.95;;;;;;;16.86;46.41;100718.34;5030082;28;20390;-81
2023/08/29 05:38:17;;;;;;;7.45;5.30;;;;;;;16.86;45.96;100721.09;5026921;28;20052;-81
2023/08/29 05:40:45;;;;;;;7.63;5.53;;;;;;;16.85;46.52;100725.78;5028415;28;20212;-80
2023/08/29 05:43:13;;;;;;;6.90;5.20;;;;;;;16.85;46.00;100728.53;5025981;28;20073;-80
2023/08/29 05:45:42;;;;;;;7.40;5.63;;;;;;;16.87;46.09;100731.97;5025874;28;20058;-80
2023/08/29 05:48:11;;;;;;;7.70;5.75;;;;;;;16.88;46.15;100730.09;5028142;28;20046;-80
2023/08/29 05:50:39;;;;;;;7.50;5.03;;;;;;;16.86;46.65;100729.41;5035110;28;20249;-82
2023/08/29 05:53:08;;;;;;;7.30;5.95;;;;;;;16.87;46.54;100728.34;5039018;28;20092;-81
2023/08/29 05:55:36;;;;;;;7.32;6.20;;;;;;;16.86;46.48;100726.63;5063068;28;20060;-81
2023/08/29 05:58:04;;;;;;;7.63;6.35;;;;;;;16.86;46.74;100733.03;5052420;28;20042;-81
2023/08/29 06:00:32;;;;;;;8.10;6.28;;;;;;;16.86;46.26;100730.25;5051458;28;20072;-80
2023/08/29 06:03:03;;;;;;;6.70;5.80;;;;;;;16.86;46.77;100723.88;5041426;28;20053;-81
2023/08/29 06:05:34;;;;;;;8.77;6.40;;;;;;;16.86;46.78;100729.41;5028969;28;20046;-81
2023/08/29 06:08:02;;;;;;;7.50;5.65;;;;;;;16.87;46.42;100725.59;5022767;28;20057;-80
2023/08/29 06:10:46;;;;;;;7.22;5.72;;;;;;;16.86;46.79;100721.09;5031382;28;20053;-81
2023/08/29 06:13:14;;;;;;;7.25;5.90;;;;;;;16.87;47.05;100723.69;5029741;28;20128;-80
2023/08/29 06:15:42;;;;;;;8.57;5.57;;;;;;;16.88;46.97;100728.19;5030248;28;20053;-79
2023/08/29 06:18:09;;;;;;;7.68;5.25;;;;;;;16.87;47.11;100729.22;5031118;28;20069;-80
2023/08/29 06:20:39;;;;;;;7.03;5.78;;;;;;;16.91;46.88;100732.47;5033462;28;20139;-80
2023/08/29 06:23:07;;;;;;;7.07;5.57;;;;;;;16.88;46.85;100725.41;5031034;28;20045;-80
2023/08/29 06:25:35;;;;;;;6.10;4.97;;;;;;;16.90;46.99;100730.78;5029365;28;20068;-78
2023/08/29 06:28:03;;;;;;;7.47;5.80;;;;;;;16.89;46.79;100729.06;5031520;28;20045;-78
2023/08/29 06:30:32;;;;;;;7.82;5.20;;;;;;;16.91;46.87;100732.47;5029896;28;20080;-79
2023/08/29 06:33:00;;;;;;;7.05;5.55;;;;;;;16.91;47.22;100733.34;5027879;28;20042;-80
2023/08/29 06:35:28;;;;;;;7.60;5.55;;;;;;;16.93;46.85;100735.94;5028953;28;20054;-80
2023/08/29 06:37:57;;;;;;;7.43;5.55;;;;;;;16.95;47.42;100734.72;5031540;28;20560;-79
2023/08/29 06:40:25;;;;;;;7.22;5.63;;;;;;;16.94;47.39;100734.91;5031137;28;20056;-79
2023/08/29 06:42:53;;;;;;;7.43;5.60;;;;;;;16.94;47.03;100733.00;5029969;28;21514;-78
2023/08/29 06:45:21;;;;;;;8.02;6.13;;;;;;;16.97;47.38;100735.44;5026684;28;20069;-80
2023/08/29 06:47:51;;;;;;;7.78;5.78;;;;;;;16.98;47.21;100739.06;5030284;28;20576;-79
2023/08/29 06:50:19;;;;;;;8.82;5.80;;;;;;;16.99;46.77;100738.00;5032090;28;20056;-83
2023/08/29 06:52:47;;;;;;;8.05;5.90;;;;;;;16.99;47.05;100738.00;5033066;28;20128;-79
2023/08/29 06:55:17;;;;;;;7.22;5.80;;;;;;;17.01;47.03;100742.31;5047863;28;20050;-79
2023/08/29 06:57:45;;;;;;;9.30;6.03;;;;;;;17.00;46.88;100742.50;5022911;28;20203;-79
2023/08/29 07:00:13;;;;;;;6.57;5.47;;;;;;;17.02;47.21;100751.47;5022700;28;20056;-80
2023/08/29 07:02:41;;;;;;;7.10;5.28;;;;;;;17.01;47.10;100747.84;5027222;28;20095;-79
2023/08/29 07:05:09;;;;;;;6.68;5.13;;;;;;;17.02;47.28;100743.19;5020347;28;20376;-82
2023/08/29 07:07:38;;;;;;;6.85;5.20;;;;;;;17.06;47.24;100749.22;5030712;28;20045;-79
2023/08/29 07:10:07;;;;;;;6.70;4.68;;;;;;;17.06;47.23;100741.81;5031667;28;20033;-82
2023/08/29 07:12:37;;;;;;;5.60;4.18;;;;;;;17.09;47.02;100738.66;5041145;28;20049;-82
2023/08/29 07:15:06;;;;;;;5.95;4.78;;;;;;;17.11;47.28;100747.63;5030550;28;20087;-81
2023/08/29 07:17:34;;;;;;;5.50;4.38;;;;;;;17.12;46.83;100752.13;5032753;28;20136;-81
2023/08/29 07:20:08;;;;;;;5.72;4.00;;;;;;;17.15;46.98;100750.91;5032185;28;20471;-79
2023/08/29 07:22:38;;;;;;;5.35;4.13;;;;;;;17.18;46.66;100747.78;5027421;28;20425;-80
2023/08/29 07:25:06;;;;;;;6.05;4.60;;;;;;;17.19;46.74;100746.75;5028340;28;20053;-82
2023/08/29 07:27:34;;;;;;;6.72;4.40;;;;;;;17.20;47.08;100749.31;5034584;28;20501;-82
2023/08/29 07:30:05;;;;;;;5.90;4.30;;;;;;;17.24;47.46;100750.69;5031751;28;20033;-82
2023/08/29 07:32:33;;;;;;;7.60;5.00;;;;;;;17.24;47.31;100744.28;5032328;28;20103;-81
2023/08/29 07:35:02;;;;;;;7.43;4.88;;;;;;;17.27;47.06;100749.47;5034757;28;20194;-82
2023/08/29 07:37:30;;;;;;;7.50;5.15;;;;;;;17.28;46.95;100751.19;5038189;28;20056;-81
2023/08/29 07:39:58;;;;;;;8.45;5.57;;;;;;;17.29;47.12;100753.78;5036156;28;20041;-80
2023/08/29 07:42:26;;;;;;;6.80;5.03;;;;;;;17.32;46.97;100753.41;5036059;28;20119;-78
2023/08/29 07:44:54;;;;;;;6.63;5.25;;;;;;;17.31;47.22;100760.00;5030689;28;20045;-78
2023/08/29 07:47:23;;;;;;;7.05;5.13;;;;;;;17.36;46.68;100760.31;5036653;28;20073;-79
2023/08/29 07:49:51;;;;;;;6.80;5.60;;;;;;;17.36;46.97;100759.44;5027877;28;20044;-80
2023/08/29 07:52:19;;;;;;;7.28;5.45;;;;;;;17.39;46.79;100759.09;5013432;28;20038;-81
2023/08/29 07:54:47;;;;;;;7.10;5.72;;;;;;;17.39;47.18;100754.44;5029796;28;20041;-80
2023/08/29 07:57:14;;;;;;;7.35;5.03;;;;;;;17.44;46.76;100753.00;5037722;28;20048;-78
2023/08/29 07:59:42;;;;;;;8.07;5.28;;;;;;;17.46;46.84;100757.31;5031543;28;22436;-80
2023/08/29 08:02:10;;;;;;;7.05;5.38;;;;;;;17.47;47.44;100756.28;5031237;28;20534;-80
2023/08/29 08:04:39;;;;;;;8.52;5.18;;;;;;;17.52;46.91;100762.13;5045342;28;20135;-81
2023/08/29 08:07:07;;;;;;;7.20;5.03;;;;;;;17.49;46.87;100748.63;5033850;28;20119;-82
2023/08/29 08:09:35;;;;;;;8.43;5.28;;;;;;;17.53;46.87;100755.53;5013084;28;20045;-81
2023/08/29 08:12:03;;;;;;;7.03;4.97;;;;;;;17.55;47.02;100755.38;5017267;28;20057;-80
2023/08/29 08:14:31;;;;;;;6.80;4.65;;;;;;;17.58;47.08;100763.28;5020439;28;20102;-81
2023/08/29 08:17:00;;;;;;;7.88;5.28;;;;;;;17.59;47.25;100762.25;5032470;28;20053;-80
2023/08/29 08:19:29;;;;;;;9.32;5.10;;;;;;;17.62;46.94;100762.75;5015663;28;20045;-81
2023/08/29 08:21:58;;;;;;;8.48;5.03;;;;;;;17.67;46.76;100762.19;5028414;28;20163;-80
2023/08/29 08:24:26;;;;;;;5.57;4.38;;;;;;;17.67;46.90;100760.28;5015900;28;20108;-80
2023/08/29 08:26:54;;;;;;;5.95;4.25;;;;;;;17.70;46.73;100762.69;5017771;28;20532;-81
2023/08/29 08:29:23;;;;;;;7.70;4.45;;;;;;;17.73;47.06;100767.84;5027242;28;20080;-81
2023/08/29 08:31:51;;;;;;;8.70;4.75;;;;;;;17.77;47.05;100771.16;5028671;28;20163;-81
2023/08/29 08:34:19;;;;;;;6.70;4.38;;;;;;;17.79;47.13;100770.97;5024125;28;20045;-81
2023/08/29 08:36:47;;;;;;;6.43;3.95;;;;;;;17.84;46.93;100771.28;5024826;28;20195;-81
2023/08/29 08:39:16;;;;;;;5.82;3.95;;;;;;;17.88;46.59;100770.75;5029456;28;20524;-81
2023/08/29 08:41:44;;;;;;;6.63;4.00;;;;;;;17.90;46.96;100771.41;5009627;28;20049;-81
2023/08/29 08:44:15;;;;;;;6.82;4.45;;;;;;;17.95;46.55;100777.25;5014701;28;20069;-80
2023/08/29 08:46:45;;;;;;;6.77;4.33;;;;;;;17.97;46.63;100777.09;5015700;28;20068;-82
2023/08/29 08:49:13;;;;;;;8.10;4.88;;;;;;;17.99;46.48;100770.28;5014042;28;20561;-81
2023/08/29 08:51:41;;;;;;;8.20;4.75;;;;;;;18.07;46.31;100772.13;5030164;28;20045;-81
2023/08/29 08:54:11;;;;;;;6.10;4.55;;;;;;;18.11;46.22;100767.97;5034287;28;20060;-81
2023/08/29 08:56:41;;;;;;;8.18;4.88;;;;;;;18.17;46.34;100774.66;5033538;28;20099;-81
2023/08/29 08:59:09;;;;;;;7.95;5.30;;;;;;;18.18;46.15;100770.84;5036539;28;20132;-81
2023/08/29 09:01:38;;;;;;;8.02;5.50;;;;;;;18.22;45.75;100766.66;5039755;28;20052;-81
2023/08/29 09:04:07;;;;;;;6.97;5.05;;;;;;;18.27;46.20;100775.25;5024624;28;20082;-81
2023/08/29 09:06:35;;;;;;;10.15;6.53;;;;;;;18.30;45.53;100767.47;5005300;28;20501;-81
2023/08/29 09:09:16;;;;;;;9.38;5.63;;;;;;;18.35;45.20;100767.75;5016511;28;20060;-81
2023/08/29 09:11:51;;;;;;;8.57;6.05;;;;;;;18.38;45.14;100770.16;5034642;28;20049;-81
2023/08/29 09:14:19;;;;;;;9.02;6.05;;;;;;;18.39;45.28;100763.53;5010512;28;20045;-81
2023/08/29 09:16:49;;;;;;;10.10;5.70;;;;;;;18.43;45.33;100767.66;5032056;28;20043;-81
2023/08/29 09:19:18;;;;;;;7.65;5.57;;;;;;;18.47;44.89;100773.72;5014705;28;20080;-81
2023/08/29 09:21:46;;;;;;;9.77;5.97;;;;;;;18.50;45.00;100767.78;5010823;28;20042;-80
2023/08/29 09:24:14;;;;;;;11.30;7.38;;;;;;;18.52;45.09;100774.03;5032630;28;20068;-80
2023/08/29 09:26:42;;;;;;;9.48;7.57;;;;;;;18.55;44.84;100770.03;5046744;28;20037;-80
2023/08/29 09:29:19;;;;;;;10.45;7.32;;;;;;;18.60;44.29;100779.47;5041259;28;20060;-80
2023/08/29 09:31:47;;;;;;;9.00;7.00;;;;;;;18.60;44.86;100773.94;5040707;28;20053;-81
2023/08/29 09:34:26;;;;;;;10.00;6.63;;;;;;;18.64;43.91;100778.03;5041042;28;20045;-81
2023/08/29 09:36:54;;;;;;;10.80;6.97;;;;;;;18.64;44.88;100769.72;5040346;28;20045;-82
2023/08/29 09:39:22;;;;;;;8.55;5.90;;;;;;;18.67;44.39;100774.91;5037667;28;20053;-81
2023/08/29 09:42:01;;;;;;;8.07;5.70;;;;;;;18.73;43.49;100771.38;5030669;28;20041;-81
2023/08/29 09:44:35;;;;;;;7.97;5.07;;;;;;;18.75;43.44;100774.81;5036708;28;20369;-81
2023/08/29 09:47:04;;;;;;;6.88;4.93;;;;;;;18.74;44.11;100767.53;5038410;28;20044;-81
2023/08/29 09:49:42;;;;;;;7.28;4.75;;;;;;;18.77;43.97;100766.31;5051700;28;20045;-81
2023/08/29 09:52:10;;;;;;;7.75;4.80;;;;;;;18.78;43.68;100763.34;5043019;28;20041;-81
2023/08/29 09:54:44;;;;;;;7.90;5.18;;;;;;;18.84;43.15;100768.13;5039748;28;20045;-81
2023/08/29 09:57:15;;;;;;;8.30;5.15;;;;;;;18.86;43.41;100762.41;5040627;28;20055;-81
2023/08/29 09:59:45;;;;;;;6.82;4.95;;;;;;;18.89;43.45;100764.78;5037119;28;20064;-81
2023/08/29 10:02:14;;;;;;;9.77;5.20;;;;;;;18.90;43.53;100760.94;5034475;28;20119;-81
2023/08/29 10:04:45;;;;;;;7.60;5.15;;;;;;;18.92;43.59;100761.63;5035608;28;20037;-81
2023/08/29 10:07:16;;;;;;;6.40;4.90;;;;;;;18.95;43.60;100760.38;5036393;28;20377;-81
2023/08/29 10:09:46;;;;;;;8.60;4.43;;;;;;;18.96;43.71;100759.34;5034320;28;20432;-81
2023/08/29 10:12:15;;;;;;;7.70;4.05;;;;;;;18.98;43.57;100748.91;5036837;28;20116;-82
2023/08/29 10:14:45;;;;;;;6.13;3.92;;;;;;;19.03;43.60;100749.19;5036616;28;20052;-82
2023/08/29 10:17:13;;;;;;;5.50;3.50;;;;;;;19.04;43.38;100739.81;5037080;28;20045;-81
2023/08/29 10:19:58;;;;;;;5.13;3.58;;;;;;;19.07;43.23;100747.75;5036670;28;20508;-82
2023/08/29 10:22:29;;;;;;;5.10;3.28;;;;;;;19.12;42.59;100748.03;5043479;28;20037;-81
2023/08/29 10:24:59;;;;;;;5.22;3.92;;;;;;;19.14;42.88;100751.47;5034142;28;20045;-81
2023/08/29 10:27:27;;;;;;;4.60;3.60;;;;;;;19.14;42.75;100737.59;5036847;28;20041;-81
2023/08/29 10:29:56;;;;;;;5.30;3.67;;;;;;;19.17;42.52;100738.06;5035912;28;20116;-81
2023/08/29 10:32:27;;;;;;;5.47;3.85;;;;;;;19.19;42.46;100740.66;5037748;28;20049;-80
2023/08/29 10:34:55;;;;;;;6.07;4.25;;;;;;;19.18;42.48;100734.25;5054501;28;20045;-81
2023/08/29 10:37:23;;;;;;;5.32;3.75;;;;;;;19.20;42.37;100745.16;5037581;28;20060;-81
2023/08/29 10:39:51;;;;;;;4.30;2.97;;;;;;;19.21;42.05;100744.16;5056110;28;20041;-81
2023/08/29 10:42:19;;;;;;;4.10;3.05;;;;;;;19.22;42.05;100745.84;5042291;28;20056;-81
2023/08/29 10:44:49;;;;;;;4.68;2.63;;;;;;;19.22;42.14;100738.38;5044328;28;20063;-81
2023/08/29 10:47:26;;;;;;;3.70;2.40;;;;;;;19.25;42.27;100737.13;5060961;28;20075;-81
2023/08/29 10:49:59;;;;;;;4.63;2.55;;;;;;;19.25;41.79;100735.22;5039566;28;20539;-80
2023/08/29 10:52:37;;;;;;;3.88;2.50;;;;;;;19.24;41.73;100738.19;5049000;28;20045;-80
2023/08/29 10:55:18;;;;;;;3.15;2.08;;;;;;;19.25;42.12;100732.44;5063460;28;20076;-81
2023/08/29 10:57:47;;;;;;;4.28;2.35;;;;;;;19.25;41.78;100735.22;5050127;28;20131;-79
2023/08/29 11:00:17;;;;;;;3.95;2.50;;;;;;;19.27;42.32;100730.34;5050489;28;20055;-79
2023/08/29 11:02:47;;;;;;;3.80;2.42;;;;;;;19.30;42.00;100734.63;5050713;28;20053;-81
2023/08/29 11:05:16;;;;;;;3.80;2.50;;;;;;;19.29;41.98;100721.84;5070816;28;20101;-82
2023/08/29 11:07:44;;;;;;;3.53;2.58;;;;;;;19.30;41.73;100722.66;5049835;28;20049;-82
2023/08/29 11:10:17;;;;;;;3.78;2.53;;;;;;;19.34;41.41;100715.69;5044923;28;20056;-82
2023/08/29 11:13:06;;;;;;;3.28;2.60;;;;;;;19.34;41.94;100724.88;5054468;28;20053;-81
2023/08/29 11:16:07;;;;;;;4.20;3.05;;;;;;;19.34;41.59;100716.56;5054738;28;20055;-82
2023/08/29 11:18:37;;;;;;;6.38;4.80;;;;;;;19.38;42.09;100714.25;5047885;28;20560;-80
2023/08/29 11:21:09;;;;;;;6.28;5.30;;;;;;;19.42;41.44;100715.56;5052627;28;20049;-80
2023/08/29 11:23:39;;;;;;;6.55;4.80;;;;;;;19.43;41.72;100711.75;5052397;28;20407;-80
2023/08/29 11:26:09;;;;;;;5.50;3.97;;;;;;;19.43;41.61;100707.06;5049903;28;20072;-80
2023/08/29 11:28:42;;;;;;;4.45;2.97;;;;;;;19.46;41.22;100703.03;5050357;28;20045;-80
2023/08/29 11:31:10;;;;;;;4.10;3.22;;;;;;;19.44;41.64;100711.56;5049797;28;20173;-79
2023/08/29 11:33:40;;;;;;;5.05;3.33;;;;;;;19.48;41.15;100709.22;5049502;28;20048;-81